Time;durP1;ratioP1;P1;durP2;ratioP2;P2;SDS_P1;SDS_P2;PMS_P1;PMS_P2;Temp;Humidity;BMP_temperature;BMP_pressure;BME280_temperature;BME280_humidity;BME280_pressure;Samples;Min_cycle;Max_cycle;Signal;HPM_P1;HPM_P2
2021/09/29 00:00:44;;;;;;;13.70;8.53;;;;;;;8.83;73.10;102269.06;1722858;83;21061;-89
2021/09/29 00:03:11;;;;;;;10.63;8.08;;;;;;;8.82;73.14;102276.47;1715640;83;21176;-89
2021/09/29 00:05:39;;;;;;;11.18;7.60;;;;;;;8.81;73.24;102272.02;1711535;83;21046;-89
2021/09/29 00:08:07;;;;;;;13.48;8.30;;;;;;;8.79;73.35;102270.13;1711477;83;21769;-89
2021/09/29 00:10:34;;;;;;;9.35;7.40;;;;;;;8.78;73.50;102271.83;1711389;83;21085;-90
2021/09/29 00:13:01;;;;;;;16.02;8.45;;;;;;;8.78;73.48;102270.94;1710338;83;21101;-81
2021/09/29 00:15:27;;;;;;;12.33;7.87;;;;;;;8.75;73.54;102271.27;1710495;83;21167;-81
2021/09/29 00:17:54;;;;;;;11.12;8.13;;;;;;;8.74;73.62;102269.44;1710420;82;21085;-81
2021/09/29 00:20:21;;;;;;;11.45;7.70;;;;;;;8.74;73.68;102271.17;1711250;83;21757;-88
2021/09/29 00:22:48;;;;;;;13.30;8.48;;;;;;;8.71;73.77;102273.22;1711131;83;21594;-89
2021/09/29 00:25:15;;;;;;;17.37;7.72;;;;;;;8.71;73.81;102281.10;1711501;83;21042;-89
2021/09/29 00:27:43;;;;;;;11.75;7.25;;;;;;;8.70;73.89;102283.21;1711460;83;21030;-89
2021/09/29 00:30:11;;;;;;;11.28;7.25;;;;;;;8.69;73.91;102277.87;1711454;83;21090;-89
2021/09/29 00:32:42;;;;;;;10.20;7.20;;;;;;;8.66;73.88;102277.30;1711435;83;21762;-88
2021/09/29 00:35:11;;;;;;;11.05;8.10;;;;;;;8.63;73.92;102277.53;1711393;83;21054;-89
2021/09/29 00:37:38;;;;;;;11.43;8.18;;;;;;;8.59;73.93;102280.38;1711328;83;21567;-87
2021/09/29 00:40:06;;;;;;;12.15;8.00;;;;;;;8.55;73.97;102276.67;1711018;83;21098;-82
2021/09/29 00:42:33;;;;;;;9.28;7.47;;;;;;;8.51;74.00;102277.31;1710795;82;21011;-87
2021/09/29 00:44:59;;;;;;;10.65;7.80;;;;;;;8.48;74.05;102273.61;1711190;83;21754;-88
2021/09/29 00:47:32;;;;;;;13.32;7.92;;;;;;;8.45;74.05;102273.45;1711311;83;21567;-89
2021/09/29 00:49:55;;;;;;;11.78;7.75;;;;;;;8.41;74.10;102274.03;1710936;83;21036;-89
2021/09/29 00:52:21;;;;;;;9.90;7.50;;;;;;;8.38;74.20;102270.83;1711414;83;21050;-88
2021/09/29 00:54:48;;;;;;;10.43;8.20;;;;;;;8.35;74.24;102266.70;1711378;83;21097;-88
2021/09/29 00:57:15;;;;;;;9.50;7.70;;;;;;;8.33;74.31;102268.34;1711337;83;21731;-88
2021/09/29 00:59:42;;;;;;;9.40;7.72;;;;;;;8.29;74.30;102271.60;1718616;83;21599;-88
2021/09/29 01:02:09;;;;;;;9.35;7.92;;;;;;;8.28;74.40;102269.81;1723755;83;21057;-87
2021/09/29 01:04:36;;;;;;;9.78;7.83;;;;;;;8.25;74.41;102269.62;1724337;83;21061;-87
2021/09/29 01:07:29;;;;;;;10.78;7.50;;;;;;;8.21;74.48;102267.22;1723949;83;21327;-88
2021/09/29 01:10:08;;;;;;;12.33;8.08;;;;;;;8.18;74.53;102262.70;1723931;83;21794;-87
2021/09/29 01:12:49;;;;;;;10.10;7.62;;;;;;;8.16;74.63;102263.03;1723838;83;21057;-86
2021/09/29 01:15:29;;;;;;;10.98;7.90;;;;;;;8.14;74.63;102258.48;1709407;83;21081;-86
2021/09/29 01:18:02;;;;;;;12.65;8.65;;;;;;;8.11;74.68;102252.66;1718334;83;21579;-87
2021/09/29 01:20:33;;;;;;;10.98;8.65;;;;;;;8.10;74.79;102256.09;1716884;83;21085;-80
2021/09/29 01:23:17;;;;;;;11.63;8.15;;;;;;;8.08;74.79;102255.09;1717481;82;21280;-80
2021/09/29 01:26:04;;;;;;;12.75;8.88;;;;;;;8.05;74.78;102255.31;1717565;83;21097;-80
2021/09/29 01:28:35;;;;;;;14.63;8.68;;;;;;;8.00;74.89;102255.05;1704898;83;21077;-81
2021/09/29 01:31:02;;;;;;;11.30;8.40;;;;;;;7.95;74.92;102256.08;1717859;82;21086;-82
2021/09/29 01:33:31;;;;;;;10.38;8.08;;;;;;;7.93;75.01;102258.13;1717896;82;22103;-82
2021/09/29 01:35:57;;;;;;;10.53;8.55;;;;;;;7.90;75.01;102252.69;1717874;83;21761;-82
2021/09/29 01:38:24;;;;;;;10.30;8.13;;;;;;;7.89;75.11;102258.76;1718007;83;21085;-82
2021/09/29 01:40:51;;;;;;;11.22;8.30;;;;;;;7.87;75.18;102256.03;1717878;83;21125;-82
2021/09/29 01:43:19;;;;;;;14.70;8.58;;;;;;;7.87;75.25;102260.38;1717735;83;21109;-82
2021/09/29 01:45:46;;;;;;;13.90;9.10;;;;;;;7.85;75.29;102256.36;1717818;83;21081;-81
2021/09/29 01:48:17;;;;;;;14.35;8.23;;;;;;;7.83;75.32;102252.73;1717818;82;21782;-82
2021/09/29 01:50:47;;;;;;;10.80;8.40;;;;;;;7.82;75.39;102251.33;1688662;83;21023;-82
2021/09/29 01:53:13;;;;;;;13.00;8.68;;;;;;;7.80;75.44;102255.16;1717564;83;21096;-82
2021/09/29 01:55:40;;;;;;;12.95;9.13;;;;;;;7.81;75.55;102249.12;1717317;83;21380;-81
2021/09/29 01:58:07;;;;;;;17.90;10.20;;;;;;;7.82;75.59;102244.36;1717314;82;21097;-82
2021/09/29 02:00:33;;;;;;;14.43;10.00;;;;;;;7.83;75.63;102242.63;1714764;83;21754;-81
2021/09/29 02:03:00;;;;;;;18.82;9.83;;;;;;;7.85;75.69;102248.91;1712343;83;21093;-81
2021/09/29 02:05:32;;;;;;;13.75;9.40;;;;;;;7.87;75.75;102249.89;1712134;83;21603;-82
2021/09/29 02:08:00;;;;;;;14.40;9.00;;;;;;;7.90;75.79;102250.98;1711966;83;21098;-82
2021/09/29 02:10:27;;;;;;;13.65;8.80;;;;;;;7.94;75.81;102253.39;1712067;83;21113;-81
2021/09/29 02:12:56;;;;;;;13.80;8.80;;;;;;;7.96;75.79;102251.34;1711948;83;21915;-82
2021/09/29 02:15:22;;;;;;;12.25;8.73;;;;;;;7.99;75.77;102247.98;1711881;83;21666;-81
2021/09/29 02:17:50;;;;;;;14.23;9.15;;;;;;;8.00;75.81;102241.95;1712242;83;21086;-88
2021/09/29 02:20:17;;;;;;;14.87;9.10;;;;;;;8.01;75.79;102244.16;1712961;83;21039;-88
2021/09/29 02:22:43;;;;;;;10.80;8.15;;;;;;;8.02;75.80;102240.73;1683566;83;21111;-82
2021/09/29 02:25:11;;;;;;;11.45;8.55;;;;;;;8.04;75.83;102244.34;1712115;83;21760;-82
2021/09/29 02:27:39;;;;;;;12.95;8.78;;;;;;;8.05;75.82;102238.27;1712246;83;21092;-82
2021/09/29 02:30:09;;;;;;;15.08;8.55;;;;;;;8.04;75.84;102236.06;1712064;83;21504;-81
2021/09/29 02:32:37;;;;;;;12.07;8.35;;;;;;;8.07;75.88;102231.39;1684075;83;21529;-81
2021/09/29 02:35:06;;;;;;;14.10;7.83;;;;;;;8.09;75.88;102238.94;1712114;83;21125;-82
2021/09/29 02:37:33;;;;;;;11.90;7.92;;;;;;;8.12;75.92;102241.76;1712341;83;21835;-82
2021/09/29 02:39:59;;;;;;;8.73;7.10;;;;;;;8.15;75.97;102241.95;1712021;83;21066;-83
2021/09/29 02:42:26;;;;;;;12.68;7.90;;;;;;;8.15;75.89;102240.22;1712139;83;21105;-82
2021/09/29 02:44:53;;;;;;;12.47;7.83;;;;;;;8.18;75.95;102240.80;1712130;83;21066;-83
2021/09/29 02:47:19;;;;;;;15.50;7.28;;;;;;;8.21;75.95;102240.98;1712233;83;21069;-82
2021/09/29 02:49:46;;;;;;;12.00;7.53;;;;;;;8.22;75.86;102236.25;1712222;82;21737;-82
2021/09/29 02:52:13;;;;;;;14.98;7.50;;;;;;;8.23;75.87;102239.36;1712025;82;21085;-82
2021/09/29 02:54:39;;;;;;;10.05;7.55;;;;;;;8.28;75.90;102237.02;1712172;83;21532;-83
2021/09/29 02:57:06;;;;;;;8.90;7.35;;;;;;;8.30;75.87;102236.70;1712000;83;21057;-82
2021/09/29 02:59:33;;;;;;;8.85;7.45;;;;;;;8.33;75.85;102244.72;1714845;83;21076;-82
2021/09/29 03:01:59;;;;;;;12.68;7.15;;;;;;;8.34;75.76;102245.23;1723126;83;21873;-82
2021/09/29 03:04:26;;;;;;;7.70;6.90;;;;;;;8.36;75.76;102237.94;1722980;83;21133;-83
2021/09/29 03:06:53;;;;;;;16.07;7.15;;;;;;;8.38;75.74;102239.34;1723036;83;22360;-83
2021/09/29 03:09:20;;;;;;;8.55;6.95;;;;;;;8.37;75.66;102238.45;1713728;83;21093;-82
2021/09/29 03:11:46;;;;;;;14.07;7.80;;;;;;;8.37;75.63;102236.21;1710298;82;21540;-82
2021/09/29 03:14:13;;;;;;;7.53;6.58;;;;;;;8.35;75.57;102233.52;1710365;83;21754;-83
2021/09/29 03:16:40;;;;;;;8.90;6.83;;;;;;;8.31;75.54;102234.13;1710310;83;21554;-81
2021/09/29 03:19:06;;;;;;;13.62;7.67;;;;;;;8.30;75.50;102236.70;1710254;83;21654;-83
2021/09/29 03:21:33;;;;;;;8.90;7.08;;;;;;;8.21;75.60;102219.11;1710310;82;21030;-83
2021/09/29 03:24:00;;;;;;;10.78;7.67;;;;;;;8.26;75.57;102231.68;1710154;82;21563;-83
2021/09/29 03:26:26;;;;;;;12.70;7.50;;;;;;;8.23;75.56;102240.67;1710395;83;21741;-83
2021/09/29 03:28:53;;;;;;;12.82;8.00;;;;;;;8.18;75.52;102235.55;1710208;83;21089;-82
2021/09/29 03:31:20;;;;;;;13.75;8.08;;;;;;;8.14;75.62;102233.16;1710981;83;21611;-89
2021/09/29 03:33:46;;;;;;;11.85;7.72;;;;;;;8.12;75.66;102238.72;1711287;83;21583;-89
2021/09/29 03:36:13;;;;;;;11.60;7.85;;;;;;;8.04;75.65;102229.51;1711373;83;21077;-89
2021/09/29 03:38:40;;;;;;;13.50;7.72;;;;;;;8.04;75.67;102233.44;1711279;83;21773;-90
2021/09/29 03:41:06;;;;;;;9.83;7.00;;;;;;;8.01;75.73;102235.88;1711219;83;21563;-87
2021/09/29 03:43:33;;;;;;;8.55;7.17;;;;;;;7.98;75.79;102239.23;1711319;83;21073;-88
2021/09/29 03:46:00;;;;;;;11.10;7.10;;;;;;;7.94;75.83;102238.55;1711234;83;21022;-88
2021/09/29 03:48:26;;;;;;;10.05;7.37;;;;;;;7.92;75.85;102238.88;1711350;83;21583;-88
2021/09/29 03:50:53;;;;;;;10.72;7.30;;;;;;;7.88;75.85;102239.51;1711279;83;22386;-88
2021/09/29 03:53:20;;;;;;;9.63;7.40;;;;;;;7.82;75.86;102239.12;1711205;83;21074;-82
2021/09/29 03:55:46;;;;;;;9.80;7.10;;;;;;;7.79;75.91;102238.95;1710417;83;21600;-80
2021/09/29 03:58:13;;;;;;;11.05;6.87;;;;;;;7.76;75.97;102233.52;1710300;82;21098;-83
2021/09/29 04:00:40;;;;;;;12.30;7.72;;;;;;;7.71;75.99;102230.59;1704676;83;21109;-82
2021/09/29 04:03:07;;;;;;;9.90;7.53;;;;;;;7.69;76.07;102232.64;1700173;82;21835;-82
2021/09/29 04:05:34;;;;;;;12.47;7.83;;;;;;;7.65;76.07;102226.72;1699575;84;21603;-82
2021/09/29 04:08:01;;;;;;;9.10;7.28;;;;;;;7.63;76.14;102228.34;1704360;84;21039;-82
2021/09/29 04:10:27;;;;;;;10.20;7.12;;;;;;;7.59;76.19;102224.64;1705324;84;21079;-85
2021/09/29 04:12:54;;;;;;;9.30;7.53;;;;;;;7.56;76.21;102225.75;1705823;84;21050;-86
2021/09/29 04:15:21;;;;;;;9.73;7.70;;;;;;;7.52;76.29;102223.76;1705461;84;21680;-85
2021/09/29 04:17:47;;;;;;;13.22;8.50;;;;;;;7.49;76.43;102224.48;1706637;83;21051;-85
2021/09/29 04:20:14;;;;;;;11.70;8.03;;;;;;;7.48;76.51;102230.52;1706541;83;21029;-86
2021/09/29 04:22:41;;;;;;;10.48;8.20;;;;;;;7.47;76.60;102221.25;1705548;84;21284;-87
2021/09/29 04:25:08;;;;;;;14.28;8.93;;;;;;;7.46;76.67;102232.14;1705635;84;21015;-86
2021/09/29 04:27:34;;;;;;;11.08;8.23;;;;;;;7.43;76.73;102227.13;1707342;83;21758;-87
2021/09/29 04:30:01;;;;;;;17.10;9.45;;;;;;;7.42;76.76;102225.33;1706122;83;21035;-88
2021/09/29 04:32:28;;;;;;;14.15;8.58;;;;;;;7.41;76.86;102227.02;1705356;83;21008;-88
2021/09/29 04:34:54;;;;;;;11.18;9.83;;;;;;;7.40;76.88;102221.30;1705413;83;21079;-86
2021/09/29 04:37:21;;;;;;;17.82;10.43;;;;;;;7.40;76.98;102226.54;1705463;83;21536;-85
2021/09/29 04:39:48;;;;;;;11.80;8.90;;;;;;;7.39;76.96;102223.41;1705775;83;22713;-89
2021/09/29 04:42:15;;;;;;;10.70;8.70;;;;;;;7.39;77.07;102220.41;1706571;83;21067;-85
2021/09/29 04:44:42;;;;;;;13.00;8.55;;;;;;;7.41;77.09;102221.78;1706636;84;21063;-87
2021/09/29 04:47:08;;;;;;;10.88;8.70;;;;;;;7.43;77.10;102223.19;1706182;83;21083;-87
2021/09/29 04:49:35;;;;;;;13.20;8.88;;;;;;;7.45;77.08;102224.19;1706602;83;21066;-89
2021/09/29 04:52:02;;;;;;;10.70;8.75;;;;;;;7.46;77.08;102226.01;1705415;83;21761;-87
2021/09/29 04:54:28;;;;;;;12.23;9.45;;;;;;;7.47;77.08;102227.42;1705105;83;21012;-87
2021/09/29 04:56:55;;;;;;;16.20;11.43;;;;;;;7.51;77.13;102227.20;1705875;83;21114;-87
2021/09/29 04:59:21;;;;;;;12.23;9.80;;;;;;;7.54;77.16;102222.13;1705499;83;21044;-88
2021/09/29 05:01:48;;;;;;;14.83;10.53;;;;;;;7.62;77.20;102227.45;1710050;83;21070;-83
2021/09/29 05:04:15;;;;;;;13.22;9.95;;;;;;;7.72;77.24;102224.56;1714662;83;22774;-84
2021/09/29 05:06:42;;;;;;;15.83;9.98;;;;;;;7.82;77.20;102219.45;1714812;83;21055;-85
2021/09/29 05:09:09;;;;;;;11.65;9.85;;;;;;;7.91;77.14;102221.73;1713639;83;21071;-86
2021/09/29 05:11:45;;;;;;;17.02;11.22;;;;;;;8.01;77.10;102224.48;1709030;83;21063;-85
2021/09/29 05:14:11;;;;;;;13.30;11.12;;;;;;;8.10;77.04;102228.97;1719383;83;21106;-89
2021/09/29 05:16:39;;;;;;;13.53;10.32;;;;;;;8.16;76.93;102223.69;1712340;83;21746;-88
2021/09/29 05:19:06;;;;;;;15.95;11.18;;;;;;;8.26;76.96;102225.50;1708412;83;21027;-85
2021/09/29 05:21:33;;;;;;;17.70;9.85;;;;;;;8.35;76.86;102225.66;1710391;83;21011;-86
2021/09/29 05:24:00;;;;;;;15.10;10.20;;;;;;;8.47;76.86;102233.35;1711377;83;21111;-89
2021/09/29 05:26:38;;;;;;;9.63;8.60;;;;;;;8.56;76.79;102231.67;1715753;83;21090;-90
2021/09/29 05:29:06;;;;;;;13.38;8.55;;;;;;;8.64;76.64;102232.10;1711925;82;22683;-90
2021/09/29 05:31:33;;;;;;;19.62;9.83;;;;;;;8.72;76.54;102233.42;1715103;83;21533;-87
2021/09/29 05:34:00;;;;;;;13.00;9.28;;;;;;;8.78;76.40;102235.08;1715074;83;21023;-87
2021/09/29 05:36:26;;;;;;;15.85;8.58;;;;;;;8.84;76.37;102233.20;1710478;83;21595;-87
2021/09/29 05:38:53;;;;;;;11.78;8.05;;;;;;;8.90;76.24;102240.13;1712712;82;21516;-88
2021/09/29 05:41:20;;;;;;;21.25;9.23;;;;;;;8.97;76.30;102234.79;1712655;83;21749;-86
2021/09/29 05:43:46;;;;;;;10.90;9.38;;;;;;;9.09;76.26;102239.00;1710418;83;21090;-86
2021/09/29 05:46:13;;;;;;;12.95;8.53;;;;;;;9.15;75.98;102239.75;1710359;82;21090;-85
2021/09/29 05:48:43;;;;;;;15.40;10.15;;;;;;;9.20;75.94;102239.59;1711906;83;21094;-85
2021/09/29 05:51:09;;;;;;;14.43;9.35;;;;;;;9.26;75.84;102237.30;1715507;82;21062;-87
2021/09/29 05:53:36;;;;;;;15.30;9.95;;;;;;;9.33;75.79;102232.87;1712720;83;21744;-88
2021/09/29 05:56:03;;;;;;;13.98;10.05;;;;;;;9.42;75.79;102239.42;1708608;83;21090;-88
2021/09/29 05:58:30;;;;;;;12.75;9.78;;;;;;;9.48;75.64;102236.73;1711677;83;21070;-88
2021/09/29 06:00:59;;;;;;;13.50;9.30;;;;;;;9.54;75.50;102236.16;1717851;83;21564;-88
2021/09/29 06:03:26;;;;;;;13.18;9.93;;;;;;;9.56;75.40;102234.50;1720794;83;21113;-88
2021/09/29 06:05:53;;;;;;;12.20;8.83;;;;;;;9.62;75.35;102238.77;1717799;83;21810;-88
2021/09/29 06:08:19;;;;;;;18.50;9.60;;;;;;;9.72;75.46;102237.52;1715179;83;21090;-88
2021/09/29 06:10:46;;;;;;;13.95;9.18;;;;;;;9.81;75.33;102229.21;1715379;83;21231;-87
2021/09/29 06:13:13;;;;;;;15.00;10.00;;;;;;;9.87;75.30;102224.26;1715384;83;21178;-85
2021/09/29 06:15:42;;;;;;;15.60;10.35;;;;;;;9.96;75.28;102228.68;1715411;83;21118;-85
2021/09/29 06:18:13;;;;;;;16.45;10.98;;;;;;;10.03;75.21;102236.06;1715389;82;21773;-85
2021/09/29 06:20:37;;;;;;;14.25;10.53;;;;;;;10.10;75.07;102233.34;1715728;82;20991;-85
2021/09/29 06:23:04;;;;;;;11.80;9.48;;;;;;;10.16;75.00;102228.38;1715486;82;21066;-85
2021/09/29 06:25:30;;;;;;;15.03;10.55;;;;;;;10.22;74.92;102237.89;1715517;83;21584;-85
2021/09/29 06:27:57;;;;;;;17.80;10.45;;;;;;;10.27;74.92;102232.45;1715478;82;21553;-85
2021/09/29 06:30:24;;;;;;;17.45;10.28;;;;;;;10.35;74.74;102230.66;1715375;83;22410;-86
2021/09/29 06:32:51;;;;;;;12.73;8.98;;;;;;;10.42;74.70;102232.77;1715417;82;22201;-86
2021/09/29 06:35:17;;;;;;;15.58;10.15;;;;;;;10.45;74.60;102231.16;1715723;82;21058;-85
2021/09/29 06:37:44;;;;;;;11.78;9.65;;;;;;;10.49;74.60;102224.32;1715503;82;21047;-86
2021/09/29 06:40:18;;;;;;;14.28;9.05;;;;;;;10.54;74.55;102224.14;1715494;82;21054;-85
2021/09/29 06:42:45;;;;;;;13.83;9.85;;;;;;;10.60;74.54;102223.11;1715324;83;21782;-85
2021/09/29 06:45:12;;;;;;;15.70;9.78;;;;;;;10.66;74.41;102223.83;1715124;83;21050;-85
2021/09/29 06:47:39;;;;;;;15.88;10.23;;;;;;;10.73;74.49;102228.98;1715402;83;21081;-85
2021/09/29 06:50:10;;;;;;;14.68;9.98;;;;;;;10.80;74.45;102228.45;1715308;83;21301;-86
2021/09/29 06:52:37;;;;;;;14.65;10.25;;;;;;;10.88;74.36;102228.39;1715379;82;21035;-85
2021/09/29 06:55:05;;;;;;;14.25;10.18;;;;;;;10.96;74.32;102231.00;1715310;82;21757;-88
2021/09/29 06:57:32;;;;;;;13.45;9.85;;;;;;;11.06;74.39;102225.31;1715422;82;21110;-88
2021/09/29 06:59:58;;;;;;;15.63;11.05;;;;;;;11.15;74.20;102223.92;1715067;83;21019;-88
2021/09/29 07:02:25;;;;;;;18.07;11.12;;;;;;;11.21;74.12;102222.48;1711195;82;21353;-87
2021/09/29 07:04:52;;;;;;;16.32;9.95;;;;;;;11.28;74.04;102226.32;1711184;82;21682;-88
2021/09/29 07:07:19;;;;;;;11.48;9.63;;;;;;;11.36;74.00;102224.92;1710888;82;21932;-88
2021/09/29 07:09:46;;;;;;;13.78;10.80;;;;;;;11.42;73.87;102224.30;1716144;83;21058;-88
2021/09/29 07:12:12;;;;;;;19.32;11.20;;;;;;;11.48;73.83;102228.09;1716911;83;21062;-88
2021/09/29 07:14:39;;;;;;;13.28;10.08;;;;;;;11.55;73.69;102224.44;1720614;82;21401;-86
2021/09/29 07:17:05;;;;;;;13.35;10.13;;;;;;;11.58;73.59;102225.88;1715290;82;21078;-86
2021/09/29 07:19:32;;;;;;;12.98;9.38;;;;;;;11.64;73.56;102224.84;1717934;83;21757;-85
2021/09/29 07:21:59;;;;;;;14.03;10.05;;;;;;;11.67;73.43;102217.05;1718131;83;21113;-85
2021/09/29 07:24:26;;;;;;;14.95;10.13;;;;;;;11.66;73.49;102209.98;1714330;82;21043;-86
2021/09/29 07:26:53;;;;;;;12.80;10.00;;;;;;;11.80;73.44;102222.45;1717841;82;21184;-85
2021/09/29 07:29:20;;;;;;;12.82;10.60;;;;;;;11.84;73.29;102218.71;1716965;82;21108;-86
2021/09/29 07:31:47;;;;;;;13.65;10.18;;;;;;;11.86;73.16;102227.59;1720654;83;21792;-86
2021/09/29 07:34:13;;;;;;;14.28;9.60;;;;;;;11.90;73.13;102218.50;1715268;82;21505;-86
2021/09/29 07:36:40;;;;;;;14.50;10.10;;;;;;;11.95;73.14;102218.29;1718317;83;21046;-86
2021/09/29 07:39:07;;;;;;;13.03;9.85;;;;;;;12.00;73.06;102218.08;1714909;83;21349;-86
2021/09/29 07:41:35;;;;;;;14.73;10.88;;;;;;;12.00;72.83;102212.38;1713734;82;21027;-85
2021/09/29 07:44:02;;;;;;;10.78;9.38;;;;;;;12.02;72.75;102215.09;1719092;83;21728;-86
2021/09/29 07:46:28;;;;;;;14.80;10.32;;;;;;;12.02;72.69;102209.80;1721470;83;21109;-86
2021/09/29 07:48:55;;;;;;;13.30;9.98;;;;;;;12.04;72.75;102211.66;1721549;83;21034;-86
2021/09/29 07:51:22;;;;;;;14.23;10.63;;;;;;;12.00;72.74;102196.97;1721285;83;21184;-86
2021/09/29 07:53:48;;;;;;;11.90;10.15;;;;;;;12.15;72.87;102202.88;1714901;83;21000;-86
2021/09/29 07:56:15;;;;;;;14.23;10.82;;;;;;;12.23;72.88;102203.20;1716505;82;21752;-85
2021/09/29 07:58:42;;;;;;;14.18;9.75;;;;;;;12.27;72.64;102199.84;1719238;83;21517;-86
2021/09/29 08:01:08;;;;;;;12.00;9.85;;;;;;;12.28;72.52;102195.48;1716824;82;21023;-86
2021/09/29 08:03:35;;;;;;;15.05;9.93;;;;;;;12.34;72.64;102195.73;1721741;83;21588;-86
2021/09/29 08:06:03;;;;;;;12.07;10.05;;;;;;;12.40;72.56;102192.01;1705475;83;21035;-86
2021/09/29 08:08:30;;;;;;;11.25;9.03;;;;;;;12.45;72.43;102190.47;1705251;84;22006;-86
2021/09/29 08:10:57;;;;;;;19.77;9.88;;;;;;;12.53;72.39;102190.77;1694151;84;21505;-86
2021/09/29 08:13:24;;;;;;;10.20;8.78;;;;;;;12.59;72.30;102189.28;1705429;83;21119;-88
2021/09/29 08:15:50;;;;;;;13.68;9.53;;;;;;;12.62;72.25;102189.39;1705316;83;21448;-85
2021/09/29 08:18:17;;;;;;;12.40;9.08;;;;;;;12.64;71.99;102191.66;1705355;84;21032;-86
2021/09/29 08:20:44;;;;;;;13.25;9.73;;;;;;;12.69;72.01;102185.27;1705503;83;21752;-86
2021/09/29 08:23:25;;;;;;;14.75;8.53;;;;;;;12.74;72.00;102185.42;1705367;84;21584;-86
2021/09/29 08:28:44;;;;;;;11.97;9.58;;;;;;;12.82;71.58;102174.33;1705359;83;21075;-86
2021/09/29 08:31:12;;;;;;;13.80;9.30;;;;;;;12.90;71.53;102181.66;1704847;83;21545;-86
2021/09/29 08:36:19;;;;;;;15.23;9.08;;;;;;;12.95;71.29;102174.38;1705071;83;21067;-85
2021/09/29 08:38:38;;;;;;;15.75;9.20;;;;;;;13.04;71.36;102172.48;1703347;83;21703;-88
2021/09/29 08:44:00;;;;;;;13.08;8.98;;;;;;;13.23;71.07;102169.70;1705564;83;21063;-88
2021/09/29 08:49:00;;;;;;;11.93;8.60;;;;;;;13.37;70.83;102166.26;1705583;83;21063;-88
2021/09/29 09:18:15;;;;;;;12.05;8.28;;;;;;;13.99;69.39;102143.26;1710729;83;21063;-88
2021/09/29 09:20:45;;;;;;;11.55;8.43;;;;;;;14.10;69.12;102137.89;1712484;83;21066;-88
2021/09/29 09:23:10;;;;;;;12.43;8.08;;;;;;;14.16;68.88;102137.19;1712435;83;21050;-88
2021/09/29 09:25:39;;;;;;;9.63;7.83;;;;;;;14.22;68.63;102126.78;1712034;83;21742;-88
2021/09/29 09:28:10;;;;;;;11.40;6.78;;;;;;;14.32;68.43;102131.95;1711158;83;21019;-87
2021/09/29 09:30:37;;;;;;;13.50;7.42;;;;;;;14.36;68.09;102126.81;1711480;83;21596;-87
2021/09/29 09:33:04;;;;;;;10.63;7.42;;;;;;;14.40;67.64;102126.48;1711408;83;21328;-87
2021/09/29 09:35:46;;;;;;;10.88;7.95;;;;;;;14.42;67.43;102120.81;1711457;83;21074;-87
2021/09/29 09:38:18;;;;;;;9.65;7.22;;;;;;;14.47;67.38;102116.56;1711490;83;22553;-87
2021/09/29 09:40:43;;;;;;;10.70;7.62;;;;;;;14.53;67.26;102116.73;1712165;83;21154;-88
2021/09/29 09:43:10;;;;;;;11.45;6.45;;;;;;;14.58;67.13;102106.30;1712447;83;21039;-88
2021/09/29 09:45:43;;;;;;;7.85;6.92;;;;;;;14.64;66.88;102102.53;1712358;83;21058;-88
2021/09/29 09:48:24;;;;;;;11.93;7.15;;;;;;;14.68;66.55;102104.41;1712758;83;21118;-87
2021/09/29 09:51:07;;;;;;;7.70;6.12;;;;;;;14.69;66.25;102098.67;1712502;83;22531;-89
2021/09/29 09:53:34;;;;;;;9.68;6.37;;;;;;;14.70;66.05;102093.42;1712362;83;21071;-88
2021/09/29 09:56:24;;;;;;;7.95;5.87;;;;;;;14.79;66.15;102092.81;1712526;83;21055;-89
2021/09/29 09:58:47;;;;;;;10.08;6.10;;;;;;;14.91;65.78;102088.28;1711067;83;21066;-89
2021/09/29 10:01:18;;;;;;;8.98;6.22;;;;;;;14.97;65.57;102078.73;1712345;83;21063;-89
2021/09/29 10:03:46;;;;;;;9.78;6.87;;;;;;;15.05;65.49;102071.42;1707807;83;21807;-89
2021/09/29 10:06:13;;;;;;;11.60;6.50;;;;;;;15.10;65.21;102066.72;1705347;83;21148;-89
2021/09/29 10:08:44;;;;;;;7.90;5.55;;;;;;;15.16;65.25;102064.66;1705400;83;21143;-88
2021/09/29 10:11:14;;;;;;;7.70;5.58;;;;;;;15.23;64.84;102060.44;1705229;83;21076;-89
2021/09/29 10:13:56;;;;;;;8.45;6.53;;;;;;;15.29;64.55;102053.95;1705327;83;20996;-89
2021/09/29 10:27:23;;;;;;;6.53;5.30;;;;;;;15.57;63.24;102044.06;1705608;84;22228;-88
2021/09/29 10:30:06;;;;;;;7.62;5.55;;;;;;;15.60;63.07;102040.13;1705754;83;21774;-88
2021/09/29 10:32:31;;;;;;;9.48;5.22;;;;;;;15.65;62.97;102039.39;1705341;83;21004;-88
2021/09/29 10:43:40;;;;;;;6.12;5.35;;;;;;;15.85;61.79;102026.64;1705678;83;21760;-88
2021/09/29 10:46:05;;;;;;;6.95;4.58;;;;;;;15.85;61.49;102029.73;1704451;83;21090;-88
2021/09/29 10:51:50;;;;;;;5.45;4.50;;;;;;;15.91;61.24;102025.45;1705309;83;21571;-87
2021/09/29 11:30:27;;;;;;;7.00;5.08;;;;;;;16.26;58.46;101981.53;1705444;83;21021;-89
2021/09/29 11:32:59;;;;;;;9.53;4.80;;;;;;;16.30;58.38;101978.51;1702457;83;21076;-89
2021/09/29 11:35:31;;;;;;;7.50;5.22;;;;;;;16.32;58.41;101976.77;1702271;83;21059;-89
2021/09/29 11:38:18;;;;;;;10.75;5.78;;;;;;;16.36;58.43;101974.64;1704737;83;21778;-89
2021/09/29 12:08:07;;;;;;;9.80;5.37;;;;;;;16.39;56.93;101937.95;1713767;82;21625;-89
2021/09/29 12:10:29;;;;;;;7.58;4.97;;;;;;;16.40;56.94;101923.34;1712389;83;21075;-89
2021/09/29 12:12:56;;;;;;;7.42;5.30;;;;;;;16.48;57.03;101931.05;1712731;83;21149;-88
2021/09/29 12:15:23;;;;;;;10.85;5.60;;;;;;;16.50;56.62;101917.36;1712826;83;21035;-89
2021/09/29 12:17:50;;;;;;;8.08;5.87;;;;;;;16.54;56.53;101916.98;1712607;83;21736;-90
2021/09/29 12:20:25;;;;;;;7.45;4.70;;;;;;;16.58;56.47;101917.95;1712559;83;21607;-88
2021/09/29 12:23:00;;;;;;;6.87;5.28;;;;;;;16.60;56.42;101911.78;1712530;83;21529;-89
2021/09/29 12:25:52;;;;;;;9.68;5.12;;;;;;;16.64;56.31;101906.97;1712471;83;21058;-89
2021/09/29 12:28:31;;;;;;;8.13;5.60;;;;;;;16.68;56.21;101903.50;1711894;82;21074;-89
2021/09/29 12:30:55;;;;;;;7.75;5.28;;;;;;;16.71;55.91;101900.02;1711105;83;21167;-89
2021/09/29 12:33:47;;;;;;;11.60;5.60;;;;;;;16.71;55.79;101903.56;1711633;83;21753;-88
2021/09/29 12:36:02;;;;;;;10.03;6.40;;;;;;;16.69;55.64;101894.67;1711097;83;21066;-88
2021/09/29 12:38:37;;;;;;;8.43;5.53;;;;;;;16.68;55.49;101891.53;1712299;83;21066;-88
2021/09/29 12:41:05;;;;;;;7.92;6.17;;;;;;;16.70;55.62;101887.17;1712160;83;21055;-89
2021/09/29 12:43:32;;;;;;;7.42;5.45;;;;;;;16.71;55.39;101887.61;1712274;83;21771;-88
2021/09/29 12:45:58;;;;;;;7.90;5.30;;;;;;;16.76;55.47;101889.05;1712133;83;22288;-89
2021/09/29 12:48:28;;;;;;;9.55;5.58;;;;;;;16.79;55.46;101882.88;1712283;83;21118;-88
2021/09/29 12:50:57;;;;;;;7.00;5.42;;;;;;;16.84;55.32;101879.45;1702062;83;21529;-89
2021/09/29 12:53:35;;;;;;;9.80;5.97;;;;;;;16.92;55.38;101876.04;1712235;83;21075;-88
2021/09/29 12:56:03;;;;;;;8.95;5.55;;;;;;;16.96;55.00;101875.22;1712350;83;22568;-83
2021/09/29 12:58:29;;;;;;;7.53;5.67;;;;;;;16.92;54.79;101875.59;1712059;83;21453;-84
2021/09/29 13:00:56;;;;;;;29.25;23.30;;;;;;;16.92;54.70;101872.94;1712122;83;21283;-83
2021/09/29 13:03:23;;;;;;;10.80;5.95;;;;;;;16.92;54.81;101877.37;1709817;83;21004;-87
2021/09/29 13:05:50;;;;;;;8.90;5.80;;;;;;;16.86;54.61;101873.73;1707469;83;21050;-89
2021/09/29 13:08:17;;;;;;;7.72;5.85;;;;;;;16.78;54.53;101874.42;1707932;83;21770;-90
2021/09/29 13:10:44;;;;;;;11.68;6.08;;;;;;;16.70;54.36;101868.56;1707886;84;21062;-89
2021/09/29 13:13:11;;;;;;;8.85;5.47;;;;;;;16.64;54.36;101872.41;1707033;83;21024;-89
2021/09/29 13:15:43;;;;;;;11.08;6.20;;;;;;;16.58;54.26;101874.09;1705631;83;22887;-89
2021/09/29 13:18:22;;;;;;;9.90;6.10;;;;;;;16.47;54.21;101867.23;1706638;83;21117;-89
2021/09/29 13:20:48;;;;;;;7.83;5.87;;;;;;;16.41;54.38;101868.46;1706258;83;22599;-84
2021/09/29 13:23:26;;;;;;;13.32;5.62;;;;;;;16.36;54.28;101867.03;1706339;83;21545;-84
2021/09/29 13:26:18;;;;;;;11.45;5.85;;;;;;;16.32;54.21;101863.85;1707561;83;21075;-90
2021/09/29 13:36:47;;;;;;;12.50;7.40;;;;;;;16.22;54.28;101857.91;1705280;84;21107;-84
2021/09/29 13:39:17;;;;;;;11.95;6.20;;;;;;;16.24;54.32;101854.85;1706251;83;21119;-84